Aviation Digital Data Service (ADDS)

Output produced by METARs form (0557 UTC 08 December 2016)
found at http://aviationweather.gov/adds/metars/
 
KLEB 080520Z 0806/0906 00000KT 1 1/2SM BR SCT001 OVC050 
     TEMPO 0806/0810 1/4SM FZFG VV001 
     FM081000 VRB03KT P6SM BKN025 
     FM081600 25007KT P6SM BKN050